sensor_id;sensor_type;location;lat;lon;timestamp;pressure;altitude;pressure_sealevel;temperature;humidity
80333;BME280;69652;51.864;-2.246;2024-03-06T00:02:20;101810.31;;;6.78;84.89
80333;BME280;69652;51.864;-2.246;2024-03-06T00:04:46;101807.63;;;6.78;84.37
80333;BME280;69652;51.864;-2.246;2024-03-06T00:07:11;101804.19;;;6.82;84.68
80333;BME280;69652;51.864;-2.246;2024-03-06T00:09:37;101807.13;;;6.81;84.66
80333;BME280;69652;51.864;-2.246;2024-03-06T00:12:02;101810.66;;;6.81;84.10
80333;BME280;69652;51.864;-2.246;2024-03-06T00:14:28;101816.78;;;6.77;83.74
80333;BME280;69652;51.864;-2.246;2024-03-06T00:16:54;101815.94;;;6.71;84.62
80333;BME280;69652;51.864;-2.246;2024-03-06T00:19:21;101816.34;;;6.63;85.08
80333;BME280;69652;51.864;-2.246;2024-03-06T00:21:47;101822.75;;;6.57;84.65
80333;BME280;69652;51.864;-2.246;2024-03-06T00:24:15;101823.72;;;6.51;84.99
80333;BME280;69652;51.864;-2.246;2024-03-06T00:26:44;101826.38;;;6.46;85.86
80333;BME280;69652;51.864;-2.246;2024-03-06T00:29:10;101828.66;;;6.37;85.19
80333;BME280;69652;51.864;-2.246;2024-03-06T00:31:37;101824.84;;;6.33;85.64
80333;BME280;69652;51.864;-2.246;2024-03-06T00:34:07;101827.97;;;6.25;86.04
80333;BME280;69652;51.864;-2.246;2024-03-06T00:36:33;101838.03;;;6.13;86.43
80333;BME280;69652;51.864;-2.246;2024-03-06T00:38:58;101837.69;;;5.93;87.95
80333;BME280;69652;51.864;-2.246;2024-03-06T00:41:24;101837.09;;;5.91;88.99
80333;BME280;69652;51.864;-2.246;2024-03-06T00:43:49;101835.13;;;5.86;88.69
80333;BME280;69652;51.864;-2.246;2024-03-06T00:46:15;101841.59;;;5.85;87.79
80333;BME280;69652;51.864;-2.246;2024-03-06T00:48:40;101830.00;;;5.85;87.71
80333;BME280;69652;51.864;-2.246;2024-03-06T00:51:06;101830.22;;;5.83;88.33
80333;BME280;69652;51.864;-2.246;2024-03-06T00:53:33;101829.81;;;5.74;88.89
80333;BME280;69652;51.864;-2.246;2024-03-06T00:55:59;101824.44;;;5.74;87.75
80333;BME280;69652;51.864;-2.246;2024-03-06T00:58:25;101826.31;;;5.74;87.55
80333;BME280;69652;51.864;-2.246;2024-03-06T01:00:50;101827.84;;;5.70;88.36
80333;BME280;69652;51.864;-2.246;2024-03-06T01:03:16;101835.88;;;5.65;86.53
80333;BME280;69652;51.864;-2.246;2024-03-06T01:05:42;101837.16;;;5.62;85.41
80333;BME280;69652;51.864;-2.246;2024-03-06T01:08:07;101840.72;;;5.51;84.72
80333;BME280;69652;51.864;-2.246;2024-03-06T01:10:32;101836.28;;;5.45;86.18
80333;BME280;69652;51.864;-2.246;2024-03-06T01:12:58;101832.25;;;5.42;86.43
80333;BME280;69652;51.864;-2.246;2024-03-06T01:15:23;101829.19;;;5.39;86.47
80333;BME280;69652;51.864;-2.246;2024-03-06T01:17:49;101829.91;;;5.34;85.63
80333;BME280;69652;51.864;-2.246;2024-03-06T01:20:16;101832.41;;;5.24;86.84
80333;BME280;69652;51.864;-2.246;2024-03-06T01:22:41;101835.28;;;5.18;87.26
80333;BME280;69652;51.864;-2.246;2024-03-06T01:25:07;101833.88;;;5.15;87.22
80333;BME280;69652;51.864;-2.246;2024-03-06T01:27:32;101840.66;;;5.18;88.39
80333;BME280;69652;51.864;-2.246;2024-03-06T01:29:58;101835.59;;;5.21;90.20
80333;BME280;69652;51.864;-2.246;2024-03-06T01:32:23;101842.75;;;5.16;91.27
80333;BME280;69652;51.864;-2.246;2024-03-06T01:34:49;101844.75;;;5.08;90.57
80333;BME280;69652;51.864;-2.246;2024-03-06T01:37:14;101843.13;;;5.07;88.99
80333;BME280;69652;51.864;-2.246;2024-03-06T01:39:40;101840.47;;;4.96;88.52
80333;BME280;69652;51.864;-2.246;2024-03-06T01:42:05;101841.78;;;4.93;89.18
80333;BME280;69652;51.864;-2.246;2024-03-06T01:44:30;101833.81;;;4.87;88.42
80333;BME280;69652;51.864;-2.246;2024-03-06T01:46:56;101843.44;;;4.83;88.26
80333;BME280;69652;51.864;-2.246;2024-03-06T01:49:23;101844.16;;;4.78;88.38
80333;BME280;69652;51.864;-2.246;2024-03-06T01:51:52;101843.31;;;4.78;88.61
80333;BME280;69652;51.864;-2.246;2024-03-06T01:54:19;101842.28;;;4.79;88.35
80333;BME280;69652;51.864;-2.246;2024-03-06T01:56:46;101838.53;;;4.80;90.14
80333;BME280;69652;51.864;-2.246;2024-03-06T01:59:16;101846.69;;;4.85;90.39
80333;BME280;69652;51.864;-2.246;2024-03-06T02:01:42;101840.84;;;4.88;90.39
80333;BME280;69652;51.864;-2.246;2024-03-06T02:04:08;101849.25;;;4.91;90.23
80333;BME280;69652;51.864;-2.246;2024-03-06T02:06:40;101856.06;;;4.94;90.58
80333;BME280;69652;51.864;-2.246;2024-03-06T02:09:05;101849.63;;;4.95;90.19
80333;BME280;69652;51.864;-2.246;2024-03-06T02:11:32;101853.44;;;4.99;90.30
80333;BME280;69652;51.864;-2.246;2024-03-06T02:13:58;101853.91;;;4.96;90.89
80333;BME280;69652;51.864;-2.246;2024-03-06T02:16:23;101850.13;;;4.80;88.49
80333;BME280;69652;51.864;-2.246;2024-03-06T02:18:56;101844.63;;;4.75;88.75
80333;BME280;69652;51.864;-2.246;2024-03-06T02:21:25;101852.22;;;4.78;90.83
80333;BME280;69652;51.864;-2.246;2024-03-06T02:23:51;101842.75;;;4.76;90.27
80333;BME280;69652;51.864;-2.246;2024-03-06T02:26:18;101844.53;;;4.70;91.53
80333;BME280;69652;51.864;-2.246;2024-03-06T02:28:50;101849.09;;;4.69;90.12
80333;BME280;69652;51.864;-2.246;2024-03-06T02:31:17;101848.25;;;4.69;91.44
80333;BME280;69652;51.864;-2.246;2024-03-06T02:33:46;101846.41;;;4.69;91.35
80333;BME280;69652;51.864;-2.246;2024-03-06T02:36:13;101849.91;;;4.70;90.27
80333;BME280;69652;51.864;-2.246;2024-03-06T02:38:39;101857.63;;;4.66;91.07
80333;BME280;69652;51.864;-2.246;2024-03-06T02:41:05;101857.84;;;4.65;91.51
80333;BME280;69652;51.864;-2.246;2024-03-06T02:43:34;101854.09;;;4.66;90.62
80333;BME280;69652;51.864;-2.246;2024-03-06T02:46:00;101847.31;;;4.63;90.70
80333;BME280;69652;51.864;-2.246;2024-03-06T02:48:25;101849.19;;;4.63;91.40
80333;BME280;69652;51.864;-2.246;2024-03-06T02:50:51;101844.63;;;4.63;91.98
80333;BME280;69652;51.864;-2.246;2024-03-06T02:53:16;101848.13;;;4.64;91.14
80333;BME280;69652;51.864;-2.246;2024-03-06T02:55:42;101844.31;;;4.60;90.96
80333;BME280;69652;51.864;-2.246;2024-03-06T02:58:07;101843.59;;;4.53;90.32
80333;BME280;69652;51.864;-2.246;2024-03-06T03:00:33;101852.38;;;4.48;91.12
80333;BME280;69652;51.864;-2.246;2024-03-06T03:02:58;101849.94;;;4.47;91.10
80333;BME280;69652;51.864;-2.246;2024-03-06T03:05:24;101847.94;;;4.42;91.81
80333;BME280;69652;51.864;-2.246;2024-03-06T03:07:50;101852.25;;;4.43;91.41
80333;BME280;69652;51.864;-2.246;2024-03-06T03:10:15;101846.06;;;4.43;90.93
80333;BME280;69652;51.864;-2.246;2024-03-06T03:12:41;101845.72;;;4.39;90.93
80333;BME280;69652;51.864;-2.246;2024-03-06T03:15:07;101847.34;;;4.28;90.41
80333;BME280;69652;51.864;-2.246;2024-03-06T03:17:33;101843.50;;;4.24;91.37
80333;BME280;69652;51.864;-2.246;2024-03-06T03:20:02;101839.19;;;4.23;91.57
80333;BME280;69652;51.864;-2.246;2024-03-06T03:22:39;101845.03;;;4.20;92.08
80333;BME280;69652;51.864;-2.246;2024-03-06T03:25:09;101841.75;;;4.18;91.19
80333;BME280;69652;51.864;-2.246;2024-03-06T03:27:39;101841.16;;;4.16;91.29
80333;BME280;69652;51.864;-2.246;2024-03-06T03:30:09;101843.50;;;4.13;90.43
80333;BME280;69652;51.864;-2.246;2024-03-06T03:32:35;101839.75;;;4.14;91.80
80333;BME280;69652;51.864;-2.246;2024-03-06T03:35:02;101843.84;;;4.16;91.41
80333;BME280;69652;51.864;-2.246;2024-03-06T03:37:27;101846.66;;;4.21;90.84
80333;BME280;69652;51.864;-2.246;2024-03-06T03:39:53;101833.31;;;4.26;91.37
80333;BME280;69652;51.864;-2.246;2024-03-06T03:42:19;101844.19;;;4.31;91.69
80333;BME280;69652;51.864;-2.246;2024-03-06T03:44:45;101841.50;;;4.31;91.08
80333;BME280;69652;51.864;-2.246;2024-03-06T03:47:10;101843.97;;;4.33;91.54
80333;BME280;69652;51.864;-2.246;2024-03-06T03:49:37;101837.53;;;4.34;91.90
80333;BME280;69652;51.864;-2.246;2024-03-06T03:52:02;101841.75;;;4.30;90.34
80333;BME280;69652;51.864;-2.246;2024-03-06T03:54:28;101832.50;;;4.26;90.96
80333;BME280;69652;51.864;-2.246;2024-03-06T03:56:53;101838.13;;;4.24;90.36
80333;BME280;69652;51.864;-2.246;2024-03-06T03:59:19;101842.44;;;4.25;91.16
80333;BME280;69652;51.864;-2.246;2024-03-06T04:01:45;101840.91;;;4.18;90.38
80333;BME280;69652;51.864;-2.246;2024-03-06T04:04:12;101844.06;;;4.15;90.62
80333;BME280;69652;51.864;-2.246;2024-03-06T04:06:37;101842.91;;;4.11;89.05
80333;BME280;69652;51.864;-2.246;2024-03-06T04:09:03;101851.31;;;4.03;89.76
80333;BME280;69652;51.864;-2.246;2024-03-06T04:11:30;101848.97;;;3.94;89.26
80333;BME280;69652;51.864;-2.246;2024-03-06T04:13:55;101855.84;;;3.90;90.02
80333;BME280;69652;51.864;-2.246;2024-03-06T04:16:21;101858.03;;;3.82;88.72
80333;BME280;69652;51.864;-2.246;2024-03-06T04:18:47;101859.44;;;3.73;89.08
80333;BME280;69652;51.864;-2.246;2024-03-06T04:21:12;101868.38;;;3.67;88.85
80333;BME280;69652;51.864;-2.246;2024-03-06T04:23:40;101869.44;;;3.54;90.17
80333;BME280;69652;51.864;-2.246;2024-03-06T04:26:05;101869.66;;;3.52;89.89
80333;BME280;69652;51.864;-2.246;2024-03-06T04:28:31;101864.41;;;3.57;90.29
80333;BME280;69652;51.864;-2.246;2024-03-06T04:30:57;101862.53;;;3.58;91.10
80333;BME280;69652;51.864;-2.246;2024-03-06T04:33:23;101862.91;;;3.61;91.02
80333;BME280;69652;51.864;-2.246;2024-03-06T04:35:48;101868.47;;;3.48;90.07
80333;BME280;69652;51.864;-2.246;2024-03-06T04:38:14;101862.38;;;3.41;89.67
80333;BME280;69652;51.864;-2.246;2024-03-06T04:40:39;101872.78;;;3.49;90.48
80333;BME280;69652;51.864;-2.246;2024-03-06T04:43:05;101872.84;;;3.43;90.13
80333;BME280;69652;51.864;-2.246;2024-03-06T04:45:32;101873.56;;;3.38;89.49
80333;BME280;69652;51.864;-2.246;2024-03-06T04:47:58;101876.91;;;3.34;90.91
80333;BME280;69652;51.864;-2.246;2024-03-06T04:50:23;101874.81;;;3.36;89.70
80333;BME280;69652;51.864;-2.246;2024-03-06T04:52:49;101874.97;;;3.41;91.39
80333;BME280;69652;51.864;-2.246;2024-03-06T04:55:14;101883.47;;;3.38;91.13
80333;BME280;69652;51.864;-2.246;2024-03-06T04:57:43;101885.72;;;3.41;91.04
80333;BME280;69652;51.864;-2.246;2024-03-06T05:00:10;101884.41;;;3.43;91.41
80333;BME280;69652;51.864;-2.246;2024-03-06T05:02:36;101879.03;;;3.43;89.85
80333;BME280;69652;51.864;-2.246;2024-03-06T05:05:03;101888.47;;;3.34;89.24
80333;BME280;69652;51.864;-2.246;2024-03-06T05:07:29;101881.56;;;3.26;89.55
80333;BME280;69652;51.864;-2.246;2024-03-06T05:09:55;101892.97;;;3.22;90.11
80333;BME280;69652;51.864;-2.246;2024-03-06T05:12:25;101897.81;;;3.13;90.75
80333;BME280;69652;51.864;-2.246;2024-03-06T05:14:52;101893.28;;;3.14;91.68
80333;BME280;69652;51.864;-2.246;2024-03-06T05:17:18;101902.97;;;3.15;91.75
80333;BME280;69652;51.864;-2.246;2024-03-06T05:19:44;101900.94;;;3.10;90.97
80333;BME280;69652;51.864;-2.246;2024-03-06T05:22:10;101909.59;;;3.12;90.30
80333;BME280;69652;51.864;-2.246;2024-03-06T05:24:37;101913.69;;;3.15;91.46
80333;BME280;69652;51.864;-2.246;2024-03-06T05:27:02;101914.56;;;3.09;90.19
80333;BME280;69652;51.864;-2.246;2024-03-06T05:29:28;101908.84;;;3.05;90.13
80333;BME280;69652;51.864;-2.246;2024-03-06T05:31:53;101912.81;;;3.03;90.34
80333;BME280;69652;51.864;-2.246;2024-03-06T05:34:23;101918.00;;;2.98;89.05
80333;BME280;69652;51.864;-2.246;2024-03-06T05:36:49;101923.69;;;2.89;89.74
80333;BME280;69652;51.864;-2.246;2024-03-06T05:39:15;101925.16;;;2.85;89.56
80333;BME280;69652;51.864;-2.246;2024-03-06T05:41:41;101926.44;;;2.83;89.50
80333;BME280;69652;51.864;-2.246;2024-03-06T05:44:07;101929.56;;;2.80;90.74
80333;BME280;69652;51.864;-2.246;2024-03-06T05:46:33;101933.41;;;2.84;90.66
80333;BME280;69652;51.864;-2.246;2024-03-06T05:48:58;101933.41;;;2.84;90.03
80333;BME280;69652;51.864;-2.246;2024-03-06T05:51:24;101929.16;;;2.76;89.69
80333;BME280;69652;51.864;-2.246;2024-03-06T05:53:49;101927.97;;;2.72;90.80
80333;BME280;69652;51.864;-2.246;2024-03-06T05:56:15;101934.00;;;2.68;90.90
80333;BME280;69652;51.864;-2.246;2024-03-06T05:58:42;101933.31;;;2.72;91.18
80333;BME280;69652;51.864;-2.246;2024-03-06T06:01:07;101930.81;;;2.77;91.53
80333;BME280;69652;51.864;-2.246;2024-03-06T06:03:33;101935.22;;;2.90;91.72
80333;BME280;69652;51.864;-2.246;2024-03-06T06:05:59;101936.03;;;2.90;91.39
80333;BME280;69652;51.864;-2.246;2024-03-06T06:08:24;101933.19;;;2.85;91.87
80333;BME280;69652;51.864;-2.246;2024-03-06T06:10:50;101937.75;;;2.85;92.39
80333;BME280;69652;51.864;-2.246;2024-03-06T06:13:17;101931.63;;;2.78;92.46
80333;BME280;69652;51.864;-2.246;2024-03-06T06:15:43;101930.66;;;2.72;93.24
80333;BME280;69652;51.864;-2.246;2024-03-06T06:18:09;101937.34;;;2.63;92.86
80333;BME280;69652;51.864;-2.246;2024-03-06T06:20:34;101941.03;;;2.44;93.07
80333;BME280;69652;51.864;-2.246;2024-03-06T06:23:00;101941.44;;;2.16;93.01
80333;BME280;69652;51.864;-2.246;2024-03-06T06:25:26;101940.00;;;2.20;93.99
80333;BME280;69652;51.864;-2.246;2024-03-06T06:27:51;101941.56;;;2.28;94.31
80333;BME280;69652;51.864;-2.246;2024-03-06T06:30:17;101934.06;;;2.36;94.86
80333;BME280;69652;51.864;-2.246;2024-03-06T06:32:42;101941.41;;;2.47;93.80
80333;BME280;69652;51.864;-2.246;2024-03-06T06:35:08;101939.09;;;2.51;94.01
80333;BME280;69652;51.864;-2.246;2024-03-06T06:37:35;101944.25;;;2.52;92.50
80333;BME280;69652;51.864;-2.246;2024-03-06T06:40:00;101944.47;;;2.51;92.93
80333;BME280;69652;51.864;-2.246;2024-03-06T06:42:34;101947.34;;;2.49;92.96
80333;BME280;69652;51.864;-2.246;2024-03-06T06:45:00;101952.06;;;2.54;92.96
80333;BME280;69652;51.864;-2.246;2024-03-06T06:47:26;101951.25;;;2.53;93.09
80333;BME280;69652;51.864;-2.246;2024-03-06T06:49:52;101959.09;;;2.48;93.01
80333;BME280;69652;51.864;-2.246;2024-03-06T06:52:17;101967.41;;;2.47;92.18
80333;BME280;69652;51.864;-2.246;2024-03-06T06:54:43;101966.31;;;2.48;92.79
80333;BME280;69652;51.864;-2.246;2024-03-06T06:57:08;101970.28;;;2.45;92.13
80333;BME280;69652;51.864;-2.246;2024-03-06T06:59:34;101969.47;;;2.45;91.75
80333;BME280;69652;51.864;-2.246;2024-03-06T07:02:00;101968.78;;;2.49;92.61
80333;BME280;69652;51.864;-2.246;2024-03-06T07:04:26;101968.16;;;2.54;92.42
80333;BME280;69652;51.864;-2.246;2024-03-06T07:06:51;101970.41;;;2.57;92.35
80333;BME280;69652;51.864;-2.246;2024-03-06T07:09:17;101975.91;;;2.62;92.71
80333;BME280;69652;51.864;-2.246;2024-03-06T07:11:43;101982.28;;;2.61;92.30
80333;BME280;69652;51.864;-2.246;2024-03-06T07:14:10;101982.28;;;2.61;93.02
80333;BME280;69652;51.864;-2.246;2024-03-06T07:16:42;101968.03;;;2.67;92.99
80333;BME280;69652;51.864;-2.246;2024-03-06T07:19:08;101972.28;;;2.75;93.21
80333;BME280;69652;51.864;-2.246;2024-03-06T07:21:33;101967.44;;;2.83;93.18
80333;BME280;69652;51.864;-2.246;2024-03-06T07:23:58;101976.69;;;2.87;92.11
80333;BME280;69652;51.864;-2.246;2024-03-06T07:26:25;101970.91;;;2.90;91.91
80333;BME280;69652;51.864;-2.246;2024-03-06T07:28:51;101973.16;;;2.94;92.30
80333;BME280;69652;51.864;-2.246;2024-03-06T07:31:18;101988.41;;;2.93;91.50
80333;BME280;69652;51.864;-2.246;2024-03-06T07:33:43;101983.50;;;2.90;91.07
80333;BME280;69652;51.864;-2.246;2024-03-06T07:36:09;101984.34;;;2.84;92.10
80333;BME280;69652;51.864;-2.246;2024-03-06T07:38:34;101978.88;;;2.97;92.81
80333;BME280;69652;51.864;-2.246;2024-03-06T07:41:00;101980.28;;;3.00;91.35
80333;BME280;69652;51.864;-2.246;2024-03-06T07:43:25;101989.25;;;3.12;92.75
80333;BME280;69652;51.864;-2.246;2024-03-06T07:45:52;101981.78;;;3.14;90.70
80333;BME280;69652;51.864;-2.246;2024-03-06T07:48:17;101984.19;;;3.04;90.10
80333;BME280;69652;51.864;-2.246;2024-03-06T07:50:42;101981.50;;;3.04;91.52
80333;BME280;69652;51.864;-2.246;2024-03-06T07:53:08;101988.03;;;3.08;92.92
80333;BME280;69652;51.864;-2.246;2024-03-06T07:55:33;101979.56;;;3.11;93.89
80333;BME280;69652;51.864;-2.246;2024-03-06T07:57:59;101983.91;;;3.30;92.76
80333;BME280;69652;51.864;-2.246;2024-03-06T08:00:24;101982.66;;;3.44;92.86
80333;BME280;69652;51.864;-2.246;2024-03-06T08:02:50;101987.81;;;3.46;92.99
80333;BME280;69652;51.864;-2.246;2024-03-06T08:05:15;101984.91;;;3.47;91.67
80333;BME280;69652;51.864;-2.246;2024-03-06T08:07:41;101979.38;;;3.60;91.90
80333;BME280;69652;51.864;-2.246;2024-03-06T08:10:10;101986.03;;;3.58;91.40
80333;BME280;69652;51.864;-2.246;2024-03-06T08:12:40;101993.53;;;3.68;90.97
80333;BME280;69652;51.864;-2.246;2024-03-06T08:15:07;101999.72;;;3.68;91.42
80333;BME280;69652;51.864;-2.246;2024-03-06T08:17:34;101994.34;;;3.68;90.35
80333;BME280;69652;51.864;-2.246;2024-03-06T08:20:00;102003.16;;;3.75;90.50
80333;BME280;69652;51.864;-2.246;2024-03-06T08:22:26;101998.91;;;3.68;89.67
80333;BME280;69652;51.864;-2.246;2024-03-06T08:24:52;102007.50;;;3.76;91.18
80333;BME280;69652;51.864;-2.246;2024-03-06T08:27:17;102009.06;;;3.95;90.73
80333;BME280;69652;51.864;-2.246;2024-03-06T08:29:43;102007.38;;;4.01;89.14
80333;BME280;69652;51.864;-2.246;2024-03-06T08:32:08;102010.09;;;4.13;90.00
80333;BME280;69652;51.864;-2.246;2024-03-06T08:34:34;102014.41;;;4.25;88.87
80333;BME280;69652;51.864;-2.246;2024-03-06T08:36:59;102013.38;;;4.26;88.30
80333;BME280;69652;51.864;-2.246;2024-03-06T08:39:25;102016.53;;;4.23;87.88
80333;BME280;69652;51.864;-2.246;2024-03-06T08:41:50;102014.13;;;4.33;87.83
80333;BME280;69652;51.864;-2.246;2024-03-06T08:44:17;102017.97;;;4.38;87.27
80333;BME280;69652;51.864;-2.246;2024-03-06T08:46:43;102021.84;;;4.42;87.26
80333;BME280;69652;51.864;-2.246;2024-03-06T08:49:08;102018.13;;;4.54;87.91
80333;BME280;69652;51.864;-2.246;2024-03-06T08:51:34;102018.72;;;4.56;86.07
80333;BME280;69652;51.864;-2.246;2024-03-06T08:53:59;102031.00;;;4.64;87.74
80333;BME280;69652;51.864;-2.246;2024-03-06T08:56:25;102012.66;;;4.84;87.63
80333;BME280;69652;51.864;-2.246;2024-03-06T08:58:51;102019.66;;;4.97;87.98
80333;BME280;69652;51.864;-2.246;2024-03-06T09:01:16;102021.31;;;5.09;87.12
80333;BME280;69652;51.864;-2.246;2024-03-06T09:03:42;102021.66;;;5.25;85.48
80333;BME280;69652;51.864;-2.246;2024-03-06T09:06:07;102022.34;;;5.20;84.64
80333;BME280;69652;51.864;-2.246;2024-03-06T09:08:33;102022.94;;;5.11;85.47
80333;BME280;69652;51.864;-2.246;2024-03-06T09:10:58;102024.00;;;5.09;87.12
80333;BME280;69652;51.864;-2.246;2024-03-06T09:13:25;102024.56;;;5.35;86.20
80333;BME280;69652;51.864;-2.246;2024-03-06T09:15:51;102022.69;;;5.35;85.19
80333;BME280;69652;51.864;-2.246;2024-03-06T09:18:16;102031.59;;;5.36;83.95
80333;BME280;69652;51.864;-2.246;2024-03-06T09:20:42;102032.25;;;5.43;84.59
80333;BME280;69652;51.864;-2.246;2024-03-06T09:23:08;102031.66;;;5.64;85.80
80333;BME280;69652;51.864;-2.246;2024-03-06T09:25:33;102035.41;;;6.03;83.39
80333;BME280;69652;51.864;-2.246;2024-03-06T09:27:59;102039.16;;;6.02;82.35
80333;BME280;69652;51.864;-2.246;2024-03-06T09:30:25;102047.22;;;5.74;83.23
80333;BME280;69652;51.864;-2.246;2024-03-06T09:32:53;102043.56;;;5.68;84.78
80333;BME280;69652;51.864;-2.246;2024-03-06T09:35:19;102048.50;;;5.71;84.14
80333;BME280;69652;51.864;-2.246;2024-03-06T09:37:45;102045.13;;;6.04;84.36
80333;BME280;69652;51.864;-2.246;2024-03-06T09:40:19;102057.59;;;6.22;83.06
80333;BME280;69652;51.864;-2.246;2024-03-06T09:42:45;102051.34;;;6.33;83.35
80333;BME280;69652;51.864;-2.246;2024-03-06T09:45:11;102056.59;;;6.11;82.94
80333;BME280;69652;51.864;-2.246;2024-03-06T09:47:38;102057.19;;;6.13;84.58
80333;BME280;69652;51.864;-2.246;2024-03-06T09:50:08;102064.47;;;6.13;81.79
80333;BME280;69652;51.864;-2.246;2024-03-06T09:52:36;102064.69;;;6.11;83.56
80333;BME280;69652;51.864;-2.246;2024-03-06T09:55:02;102064.88;;;6.22;83.14
80333;BME280;69652;51.864;-2.246;2024-03-06T09:57:30;102061.91;;;6.51;84.68
80333;BME280;69652;51.864;-2.246;2024-03-06T09:59:55;102057.94;;;6.71;82.43
80333;BME280;69652;51.864;-2.246;2024-03-06T10:04:55;102067.16;;;6.58;80.99
80333;BME280;69652;51.864;-2.246;2024-03-06T10:07:21;102072.69;;;6.51;82.89
80333;BME280;69652;51.864;-2.246;2024-03-06T10:09:47;102058.66;;;6.83;81.82
80333;BME280;69652;51.864;-2.246;2024-03-06T10:12:17;102060.69;;;6.76;81.70
80333;BME280;69652;51.864;-2.246;2024-03-06T10:14:52;102061.69;;;6.86;80.95
80333;BME280;69652;51.864;-2.246;2024-03-06T10:17:21;102066.59;;;7.06;82.67
80333;BME280;69652;51.864;-2.246;2024-03-06T10:19:52;102066.09;;;6.93;82.36
80333;BME280;69652;51.864;-2.246;2024-03-06T10:22:19;102060.53;;;7.16;80.96
80333;BME280;69652;51.864;-2.246;2024-03-06T10:24:45;102061.50;;;7.48;79.93
80333;BME280;69652;51.864;-2.246;2024-03-06T10:27:15;102067.28;;;7.35;79.97
80333;BME280;69652;51.864;-2.246;2024-03-06T10:29:44;102070.22;;;7.34;80.40
80333;BME280;69652;51.864;-2.246;2024-03-06T10:32:09;102076.78;;;7.38;79.66
80333;BME280;69652;51.864;-2.246;2024-03-06T10:34:37;102068.81;;;7.48;80.77
80333;BME280;69652;51.864;-2.246;2024-03-06T10:37:03;102068.06;;;7.74;79.70
80333;BME280;69652;51.864;-2.246;2024-03-06T10:39:35;102058.13;;;8.02;78.76
80333;BME280;69652;51.864;-2.246;2024-03-06T10:42:06;102060.47;;;8.20;76.19
80333;BME280;69652;51.864;-2.246;2024-03-06T10:44:34;102063.09;;;7.88;78.13
80333;BME280;69652;51.864;-2.246;2024-03-06T10:47:01;102068.38;;;8.00;77.88
80333;BME280;69652;51.864;-2.246;2024-03-06T10:49:29;102074.84;;;7.98;78.65
80333;BME280;69652;51.864;-2.246;2024-03-06T10:51:59;102089.31;;;7.87;78.25
80333;BME280;69652;51.864;-2.246;2024-03-06T10:54:30;102075.72;;;8.04;78.57
80333;BME280;69652;51.864;-2.246;2024-03-06T10:56:56;102083.69;;;8.16;79.19
80333;BME280;69652;51.864;-2.246;2024-03-06T10:59:24;102083.72;;;8.38;79.13
80333;BME280;69652;51.864;-2.246;2024-03-06T11:01:53;102083.88;;;8.31;77.59
80333;BME280;69652;51.864;-2.246;2024-03-06T11:04:20;102083.09;;;8.57;77.29
80333;BME280;69652;51.864;-2.246;2024-03-06T11:06:45;102083.84;;;9.17;75.64
80333;BME280;69652;51.864;-2.246;2024-03-06T11:09:11;102078.38;;;9.54;74.68
80333;BME280;69652;51.864;-2.246;2024-03-06T11:11:53;102068.97;;;9.71;73.03
80333;BME280;69652;51.864;-2.246;2024-03-06T11:14:23;102076.34;;;9.86;72.93
80333;BME280;69652;51.864;-2.246;2024-03-06T11:17:12;102082.78;;;9.65;72.24
80333;BME280;69652;51.864;-2.246;2024-03-06T11:28:19;102076.03;;;10.50;70.01
80333;BME280;69652;51.864;-2.246;2024-03-06T11:33:20;102083.31;;;10.39;69.90
80333;BME280;69652;51.864;-2.246;2024-03-06T11:36:24;102073.03;;;10.46;70.78
80333;BME280;69652;51.864;-2.246;2024-03-06T11:39:03;102074.41;;;10.69;70.50
80333;BME280;69652;51.864;-2.246;2024-03-06T11:41:31;102079.28;;;11.18;69.04
80333;BME280;69652;51.864;-2.246;2024-03-06T11:43:59;102076.72;;;11.77;67.20
80333;BME280;69652;51.864;-2.246;2024-03-06T11:49:17;102067.69;;;11.87;64.90
80333;BME280;69652;51.864;-2.246;2024-03-06T11:51:49;102063.34;;;13.03;62.64
80333;BME280;69652;51.864;-2.246;2024-03-06T11:54:15;102066.22;;;12.05;65.10
80333;BME280;69652;51.864;-2.246;2024-03-06T11:56:42;102064.63;;;12.43;63.40
80333;BME280;69652;51.864;-2.246;2024-03-06T11:59:09;102067.22;;;13.55;62.83
80333;BME280;69652;51.864;-2.246;2024-03-06T12:01:36;102063.81;;;15.27;57.65
80333;BME280;69652;51.864;-2.246;2024-03-06T12:04:02;102066.66;;;14.89;55.46
80333;BME280;69652;51.864;-2.246;2024-03-06T12:06:30;102064.69;;;14.95;55.99
80333;BME280;69652;51.864;-2.246;2024-03-06T12:08:55;102061.25;;;14.52;56.09
80333;BME280;69652;51.864;-2.246;2024-03-06T12:11:20;102056.44;;;15.82;55.25
80333;BME280;69652;51.864;-2.246;2024-03-06T12:13:51;102045.06;;;16.38;51.11
80333;BME280;69652;51.864;-2.246;2024-03-06T12:16:17;102049.09;;;16.77;49.89
80333;BME280;69652;51.864;-2.246;2024-03-06T12:18:42;102042.47;;;17.31;48.71
80333;BME280;69652;51.864;-2.246;2024-03-06T12:21:10;102043.31;;;17.49;48.90
80333;BME280;69652;51.864;-2.246;2024-03-06T12:23:36;102039.75;;;17.96;46.72
80333;BME280;69652;51.864;-2.246;2024-03-06T12:26:09;102043.31;;;18.05;46.41
80333;BME280;69652;51.864;-2.246;2024-03-06T12:28:38;102036.72;;;18.32;45.62
80333;BME280;69652;51.864;-2.246;2024-03-06T12:31:05;102035.72;;;18.46;45.82
80333;BME280;69652;51.864;-2.246;2024-03-06T12:33:32;102027.31;;;18.85;44.95
80333;BME280;69652;51.864;-2.246;2024-03-06T12:36:03;102027.94;;;18.82;46.44
80333;BME280;69652;51.864;-2.246;2024-03-06T12:38:30;102027.53;;;20.06;43.23
80333;BME280;69652;51.864;-2.246;2024-03-06T12:40:55;102017.91;;;20.87;40.51
80333;BME280;69652;51.864;-2.246;2024-03-06T12:43:21;102023.81;;;20.65;42.13
80333;BME280;69652;51.864;-2.246;2024-03-06T12:45:46;102012.09;;;21.25;39.87
80333;BME280;69652;51.864;-2.246;2024-03-06T12:48:12;102013.03;;;21.66;39.33
80333;BME280;69652;51.864;-2.246;2024-03-06T12:50:38;102012.00;;;21.58;39.98
80333;BME280;69652;51.864;-2.246;2024-03-06T12:53:04;102014.53;;;21.63;38.89
80333;BME280;69652;51.864;-2.246;2024-03-06T12:55:32;102010.88;;;21.47;39.19
80333;BME280;69652;51.864;-2.246;2024-03-06T12:57:58;102006.25;;;21.51;40.45
80333;BME280;69652;51.864;-2.246;2024-03-06T13:00:23;101992.84;;;22.29;38.39
80333;BME280;69652;51.864;-2.246;2024-03-06T13:02:50;102005.53;;;21.17;38.95